sensor_id;sensor_type;location;lat;lon;timestamp;P1;durP1;ratioP1;P2;durP2;ratioP2
77061;SDS011;65989;51.686;5.138;2023-06-22T00:01:15;9.52;;;6.32;;
77061;SDS011;65989;51.686;5.138;2023-06-22T00:03:40;11.63;;;7.10;;
77061;SDS011;65989;51.686;5.138;2023-06-22T00:06:05;9.70;;;6.87;;
77061;SDS011;65989;51.686;5.138;2023-06-22T00:08:31;10.43;;;6.82;;
77061;SDS011;65989;51.686;5.138;2023-06-22T00:10:56;9.10;;;6.30;;
77061;SDS011;65989;51.686;5.138;2023-06-22T00:13:21;10.43;;;7.00;;
77061;SDS011;65989;51.686;5.138;2023-06-22T00:15:46;10.40;;;7.20;;
77061;SDS011;65989;51.686;5.138;2023-06-22T00:18:12;9.83;;;6.90;;
77061;SDS011;65989;51.686;5.138;2023-06-22T00:20:38;10.50;;;7.00;;
77061;SDS011;65989;51.686;5.138;2023-06-22T00:23:04;10.53;;;7.13;;
77061;SDS011;65989;51.686;5.138;2023-06-22T00:25:35;11.45;;;6.95;;
77061;SDS011;65989;51.686;5.138;2023-06-22T00:28:01;12.83;;;7.03;;
77061;SDS011;65989;51.686;5.138;2023-06-22T00:30:26;9.93;;;6.68;;
77061;SDS011;65989;51.686;5.138;2023-06-22T00:32:52;9.83;;;7.40;;
77061;SDS011;65989;51.686;5.138;2023-06-22T00:35:17;10.37;;;7.13;;
77061;SDS011;65989;51.686;5.138;2023-06-22T00:37:42;11.63;;;7.30;;
77061;SDS011;65989;51.686;5.138;2023-06-22T00:40:08;12.00;;;7.20;;
77061;SDS011;65989;51.686;5.138;2023-06-22T00:42:36;11.65;;;7.43;;
77061;SDS011;65989;51.686;5.138;2023-06-22T00:45:01;13.80;;;7.97;;
77061;SDS011;65989;51.686;5.138;2023-06-22T00:47:27;13.27;;;7.73;;
77061;SDS011;65989;51.686;5.138;2023-06-22T00:49:52;11.33;;;7.77;;
77061;SDS011;65989;51.686;5.138;2023-06-22T00:52:18;13.23;;;8.03;;
77061;SDS011;65989;51.686;5.138;2023-06-22T00:54:46;11.45;;;7.95;;
77061;SDS011;65989;51.686;5.138;2023-06-22T00:57:14;9.48;;;7.35;;
77061;SDS011;65989;51.686;5.138;2023-06-22T00:59:44;10.83;;;7.43;;
77061;SDS011;65989;51.686;5.138;2023-06-22T01:02:09;12.13;;;7.85;;
77061;SDS011;65989;51.686;5.138;2023-06-22T01:04:36;10.93;;;7.65;;
77061;SDS011;65989;51.686;5.138;2023-06-22T01:07:18;14.63;;;8.03;;
77061;SDS011;65989;51.686;5.138;2023-06-22T01:09:59;11.55;;;8.20;;
77061;SDS011;65989;51.686;5.138;2023-06-22T01:12:26;11.77;;;8.27;;
77061;SDS011;65989;51.686;5.138;2023-06-22T01:14:58;12.45;;;8.68;;
77061;SDS011;65989;51.686;5.138;2023-06-22T01:17:25;13.95;;;9.20;;
77061;SDS011;65989;51.686;5.138;2023-06-22T01:19:53;12.60;;;9.03;;
77061;SDS011;65989;51.686;5.138;2023-06-22T01:22:23;13.57;;;8.70;;
77061;SDS011;65989;51.686;5.138;2023-06-22T01:24:57;13.40;;;8.75;;
77061;SDS011;65989;51.686;5.138;2023-06-22T01:29:51;12.87;;;9.43;;
77061;SDS011;65989;51.686;5.138;2023-06-22T01:32:17;17.20;;;10.00;;
77061;SDS011;65989;51.686;5.138;2023-06-22T01:34:43;13.00;;;9.23;;
77061;SDS011;65989;51.686;5.138;2023-06-22T01:37:09;14.63;;;9.33;;
77061;SDS011;65989;51.686;5.138;2023-06-22T01:39:34;13.40;;;9.32;;
77061;SDS011;65989;51.686;5.138;2023-06-22T01:41:59;14.07;;;9.50;;
77061;SDS011;65989;51.686;5.138;2023-06-22T01:44:25;13.03;;;9.20;;
77061;SDS011;65989;51.686;5.138;2023-06-22T01:46:51;12.25;;;9.45;;
77061;SDS011;65989;51.686;5.138;2023-06-22T01:49:17;14.25;;;10.32;;
77061;SDS011;65989;51.686;5.138;2023-06-22T01:51:42;14.33;;;9.30;;
77061;SDS011;65989;51.686;5.138;2023-06-22T01:54:08;17.58;;;11.90;;
77061;SDS011;65989;51.686;5.138;2023-06-22T01:56:34;15.00;;;9.93;;
77061;SDS011;65989;51.686;5.138;2023-06-22T02:01:44;15.68;;;11.10;;
77061;SDS011;65989;51.686;5.138;2023-06-22T02:04:12;16.25;;;11.40;;
77061;SDS011;65989;51.686;5.138;2023-06-22T02:06:39;16.17;;;11.03;;
77061;SDS011;65989;51.686;5.138;2023-06-22T02:09:10;16.37;;;11.67;;
77061;SDS011;65989;51.686;5.138;2023-06-22T02:11:37;18.60;;;11.50;;
77061;SDS011;65989;51.686;5.138;2023-06-22T02:14:03;15.63;;;11.80;;
77061;SDS011;65989;51.686;5.138;2023-06-22T02:16:30;18.33;;;12.90;;
77061;SDS011;65989;51.686;5.138;2023-06-22T02:18:55;14.52;;;11.35;;
77061;SDS011;65989;51.686;5.138;2023-06-22T02:21:23;15.88;;;12.30;;
77061;SDS011;65989;51.686;5.138;2023-06-22T02:23:48;19.63;;;12.85;;
77061;SDS011;65989;51.686;5.138;2023-06-22T02:26:15;16.07;;;12.17;;
77061;SDS011;65989;51.686;5.138;2023-06-22T02:28:41;18.97;;;12.37;;
77061;SDS011;65989;51.686;5.138;2023-06-22T02:31:06;14.27;;;11.60;;
77061;SDS011;65989;51.686;5.138;2023-06-22T02:33:31;21.30;;;12.87;;
77061;SDS011;65989;51.686;5.138;2023-06-22T02:35:56;18.07;;;12.97;;
77061;SDS011;65989;51.686;5.138;2023-06-22T02:38:22;16.53;;;12.03;;
77061;SDS011;65989;51.686;5.138;2023-06-22T02:40:49;17.65;;;12.52;;
77061;SDS011;65989;51.686;5.138;2023-06-22T02:43:14;19.47;;;13.70;;
77061;SDS011;65989;51.686;5.138;2023-06-22T02:45:40;18.33;;;13.60;;
77061;SDS011;65989;51.686;5.138;2023-06-22T02:48:05;17.47;;;13.30;;
77061;SDS011;65989;51.686;5.138;2023-06-22T02:50:30;20.07;;;14.17;;
77061;SDS011;65989;51.686;5.138;2023-06-22T02:52:55;19.37;;;13.50;;
77061;SDS011;65989;51.686;5.138;2023-06-22T02:55:21;17.00;;;13.50;;
77061;SDS011;65989;51.686;5.138;2023-06-22T02:57:46;19.00;;;14.17;;
77061;SDS011;65989;51.686;5.138;2023-06-22T03:00:13;17.73;;;13.98;;
77061;SDS011;65989;51.686;5.138;2023-06-22T03:02:45;20.65;;;14.68;;
77061;SDS011;65989;51.686;5.138;2023-06-22T03:05:10;22.30;;;15.07;;
77061;SDS011;65989;51.686;5.138;2023-06-22T03:07:42;23.63;;;15.13;;
77061;SDS011;65989;51.686;5.138;2023-06-22T03:10:08;21.37;;;15.17;;
77061;SDS011;65989;51.686;5.138;2023-06-22T03:12:37;21.30;;;15.18;;
77061;SDS011;65989;51.686;5.138;2023-06-22T03:15:03;21.95;;;15.95;;
77061;SDS011;65989;51.686;5.138;2023-06-22T03:17:28;22.93;;;15.57;;
77061;SDS011;65989;51.686;5.138;2023-06-22T03:19:53;20.50;;;15.13;;
77061;SDS011;65989;51.686;5.138;2023-06-22T03:22:19;22.70;;;16.50;;
77061;SDS011;65989;51.686;5.138;2023-06-22T03:24:44;18.73;;;15.57;;
77061;SDS011;65989;51.686;5.138;2023-06-22T03:27:09;22.73;;;15.60;;
77061;SDS011;65989;51.686;5.138;2023-06-22T03:29:35;20.53;;;15.57;;
77061;SDS011;65989;51.686;5.138;2023-06-22T03:32:00;18.30;;;14.02;;
77061;SDS011;65989;51.686;5.138;2023-06-22T03:34:25;24.83;;;15.73;;
77061;SDS011;65989;51.686;5.138;2023-06-22T03:36:50;22.13;;;16.23;;
77061;SDS011;65989;51.686;5.138;2023-06-22T03:39:16;22.50;;;15.13;;
77061;SDS011;65989;51.686;5.138;2023-06-22T03:41:41;21.43;;;15.63;;
77061;SDS011;65989;51.686;5.138;2023-06-22T03:44:06;20.60;;;15.10;;
77061;SDS011;65989;51.686;5.138;2023-06-22T03:46:31;22.67;;;15.67;;
77061;SDS011;65989;51.686;5.138;2023-06-22T03:48:57;22.40;;;15.73;;
77061;SDS011;65989;51.686;5.138;2023-06-22T03:51:22;21.00;;;14.55;;
77061;SDS011;65989;51.686;5.138;2023-06-22T03:53:50;19.93;;;14.70;;
77061;SDS011;65989;51.686;5.138;2023-06-22T03:56:15;20.75;;;15.23;;
77061;SDS011;65989;51.686;5.138;2023-06-22T03:58:45;21.67;;;15.02;;
77061;SDS011;65989;51.686;5.138;2023-06-22T04:01:10;22.07;;;15.50;;
77061;SDS011;65989;51.686;5.138;2023-06-22T04:03:36;19.50;;;15.37;;
77061;SDS011;65989;51.686;5.138;2023-06-22T04:06:02;22.10;;;16.05;;
77061;SDS011;65989;51.686;5.138;2023-06-22T04:08:27;22.73;;;16.43;;
77061;SDS011;65989;51.686;5.138;2023-06-22T04:10:52;22.97;;;15.70;;
77061;SDS011;65989;51.686;5.138;2023-06-22T04:13:17;22.67;;;15.53;;
77061;SDS011;65989;51.686;5.138;2023-06-22T04:15:43;19.73;;;15.13;;
77061;SDS011;65989;51.686;5.138;2023-06-22T04:18:08;21.60;;;15.37;;
77061;SDS011;65989;51.686;5.138;2023-06-22T04:20:33;19.17;;;15.07;;
77061;SDS011;65989;51.686;5.138;2023-06-22T04:22:58;21.70;;;15.43;;
77061;SDS011;65989;51.686;5.138;2023-06-22T04:25:24;21.77;;;14.87;;
77061;SDS011;65989;51.686;5.138;2023-06-22T04:27:49;19.33;;;14.17;;
77061;SDS011;65989;51.686;5.138;2023-06-22T04:30:14;20.83;;;14.55;;
77061;SDS011;65989;51.686;5.138;2023-06-22T04:32:42;22.80;;;14.10;;
77061;SDS011;65989;51.686;5.138;2023-06-22T04:35:07;19.77;;;13.53;;
77061;SDS011;65989;51.686;5.138;2023-06-22T04:37:33;22.77;;;13.63;;
77061;SDS011;65989;51.686;5.138;2023-06-22T04:39:58;24.08;;;13.50;;
77061;SDS011;65989;51.686;5.138;2023-06-22T04:42:25;20.63;;;13.87;;
77061;SDS011;65989;51.686;5.138;2023-06-22T04:44:51;18.40;;;12.73;;
77061;SDS011;65989;51.686;5.138;2023-06-22T04:47:16;19.30;;;13.87;;
77061;SDS011;65989;51.686;5.138;2023-06-22T04:49:41;21.93;;;13.10;;
77061;SDS011;65989;51.686;5.138;2023-06-22T04:52:09;19.63;;;12.57;;
77061;SDS011;65989;51.686;5.138;2023-06-22T04:54:34;21.10;;;12.55;;
77061;SDS011;65989;51.686;5.138;2023-06-22T04:57:03;18.65;;;12.23;;
77061;SDS011;65989;51.686;5.138;2023-06-22T04:59:29;19.55;;;13.13;;
77061;SDS011;65989;51.686;5.138;2023-06-22T05:01:58;18.83;;;13.13;;
77061;SDS011;65989;51.686;5.138;2023-06-22T05:04:24;18.05;;;12.85;;
77061;SDS011;65989;51.686;5.138;2023-06-22T05:06:50;16.87;;;12.80;;
77061;SDS011;65989;51.686;5.138;2023-06-22T05:09:15;19.95;;;12.90;;
77061;SDS011;65989;51.686;5.138;2023-06-22T05:11:42;18.77;;;11.95;;
77061;SDS011;65989;51.686;5.138;2023-06-22T05:14:07;18.23;;;11.50;;
77061;SDS011;65989;51.686;5.138;2023-06-22T05:16:32;17.13;;;11.60;;
77061;SDS011;65989;51.686;5.138;2023-06-22T05:18:58;15.73;;;11.00;;
77061;SDS011;65989;51.686;5.138;2023-06-22T05:21:24;14.50;;;10.97;;
77061;SDS011;65989;51.686;5.138;2023-06-22T05:23:49;14.32;;;10.15;;
77061;SDS011;65989;51.686;5.138;2023-06-22T05:26:15;14.80;;;10.15;;
77061;SDS011;65989;51.686;5.138;2023-06-22T05:28:40;15.03;;;9.83;;
77061;SDS011;65989;51.686;5.138;2023-06-22T05:31:05;14.37;;;9.87;;
77061;SDS011;65989;51.686;5.138;2023-06-22T05:33:30;15.70;;;10.03;;
77061;SDS011;65989;51.686;5.138;2023-06-22T05:35:56;15.07;;;10.47;;
77061;SDS011;65989;51.686;5.138;2023-06-22T05:38:21;14.13;;;10.07;;
77061;SDS011;65989;51.686;5.138;2023-06-22T05:40:46;14.43;;;10.20;;
77061;SDS011;65989;51.686;5.138;2023-06-22T05:43:12;17.83;;;10.70;;
77061;SDS011;65989;51.686;5.138;2023-06-22T05:45:37;14.97;;;10.67;;
77061;SDS011;65989;51.686;5.138;2023-06-22T05:48:02;16.87;;;10.00;;
77061;SDS011;65989;51.686;5.138;2023-06-22T05:50:27;16.27;;;10.20;;
77061;SDS011;65989;51.686;5.138;2023-06-22T05:52:53;15.90;;;10.47;;
77061;SDS011;65989;51.686;5.138;2023-06-22T05:55:18;15.00;;;9.80;;
77061;SDS011;65989;51.686;5.138;2023-06-22T05:57:44;16.20;;;10.47;;
77061;SDS011;65989;51.686;5.138;2023-06-22T06:00:09;14.13;;;10.90;;
77061;SDS011;65989;51.686;5.138;2023-06-22T06:02:36;15.13;;;9.45;;
77061;SDS011;65989;51.686;5.138;2023-06-22T06:05:01;14.97;;;10.43;;
77061;SDS011;65989;51.686;5.138;2023-06-22T06:07:27;17.60;;;10.23;;
77061;SDS011;65989;51.686;5.138;2023-06-22T06:09:53;13.43;;;10.27;;
77061;SDS011;65989;51.686;5.138;2023-06-22T06:12:18;15.67;;;9.90;;
77061;SDS011;65989;51.686;5.138;2023-06-22T06:14:43;19.70;;;10.53;;
77061;SDS011;65989;51.686;5.138;2023-06-22T06:17:08;15.05;;;10.73;;
77061;SDS011;65989;51.686;5.138;2023-06-22T06:19:34;14.23;;;10.50;;
77061;SDS011;65989;51.686;5.138;2023-06-22T06:21:59;14.10;;;10.83;;
77061;SDS011;65989;51.686;5.138;2023-06-22T06:24:25;16.07;;;11.20;;
77061;SDS011;65989;51.686;5.138;2023-06-22T06:26:50;17.10;;;11.30;;
77061;SDS011;65989;51.686;5.138;2023-06-22T06:29:15;20.30;;;11.60;;
77061;SDS011;65989;51.686;5.138;2023-06-22T06:31:41;16.87;;;11.93;;
77061;SDS011;65989;51.686;5.138;2023-06-22T06:34:06;19.47;;;12.67;;
77061;SDS011;65989;51.686;5.138;2023-06-22T06:36:32;19.30;;;11.87;;
77061;SDS011;65989;51.686;5.138;2023-06-22T06:38:57;17.80;;;12.00;;
77061;SDS011;65989;51.686;5.138;2023-06-22T06:41:22;18.87;;;11.53;;
77061;SDS011;65989;51.686;5.138;2023-06-22T06:43:48;14.73;;;11.50;;
77061;SDS011;65989;51.686;5.138;2023-06-22T06:46:13;15.60;;;10.80;;
77061;SDS011;65989;51.686;5.138;2023-06-22T06:48:38;16.90;;;11.53;;
77061;SDS011;65989;51.686;5.138;2023-06-22T06:51:04;18.67;;;11.57;;
77061;SDS011;65989;51.686;5.138;2023-06-22T06:53:30;14.83;;;11.47;;
77061;SDS011;65989;51.686;5.138;2023-06-22T06:55:55;14.35;;;11.25;;
77061;SDS011;65989;51.686;5.138;2023-06-22T06:58:21;16.07;;;11.40;;
77061;SDS011;65989;51.686;5.138;2023-06-22T07:00:47;17.83;;;11.52;;
77061;SDS011;65989;51.686;5.138;2023-06-22T07:03:13;14.57;;;11.27;;
77061;SDS011;65989;51.686;5.138;2023-06-22T07:05:38;17.97;;;11.87;;
77061;SDS011;65989;51.686;5.138;2023-06-22T07:08:03;17.97;;;11.77;;
77061;SDS011;65989;51.686;5.138;2023-06-22T07:10:29;14.93;;;11.60;;
77061;SDS011;65989;51.686;5.138;2023-06-22T07:12:54;24.33;;;11.57;;
77061;SDS011;65989;51.686;5.138;2023-06-22T07:15:19;15.60;;;11.80;;
77061;SDS011;65989;51.686;5.138;2023-06-22T07:17:45;20.98;;;12.20;;
77061;SDS011;65989;51.686;5.138;2023-06-22T07:20:10;18.80;;;13.03;;
77061;SDS011;65989;51.686;5.138;2023-06-22T07:22:41;16.53;;;13.00;;
77061;SDS011;65989;51.686;5.138;2023-06-22T07:25:06;18.77;;;12.65;;
77061;SDS011;65989;51.686;5.138;2023-06-22T07:27:38;18.45;;;13.85;;
77061;SDS011;65989;51.686;5.138;2023-06-22T07:30:05;22.15;;;13.43;;
77061;SDS011;65989;51.686;5.138;2023-06-22T07:32:30;19.03;;;13.87;;
77061;SDS011;65989;51.686;5.138;2023-06-22T07:34:55;18.50;;;13.83;;
77061;SDS011;65989;51.686;5.138;2023-06-22T07:37:21;24.50;;;14.57;;
77061;SDS011;65989;51.686;5.138;2023-06-22T07:39:46;19.63;;;14.57;;
77061;SDS011;65989;51.686;5.138;2023-06-22T07:42:11;19.67;;;14.80;;
77061;SDS011;65989;51.686;5.138;2023-06-22T07:44:36;23.03;;;15.03;;
77061;SDS011;65989;51.686;5.138;2023-06-22T07:47:02;19.37;;;14.73;;
77061;SDS011;65989;51.686;5.138;2023-06-22T07:49:27;21.23;;;14.77;;
77061;SDS011;65989;51.686;5.138;2023-06-22T07:51:53;22.07;;;15.43;;
77061;SDS011;65989;51.686;5.138;2023-06-22T07:54:18;20.67;;;14.90;;
77061;SDS011;65989;51.686;5.138;2023-06-22T07:56:43;19.92;;;15.15;;
77061;SDS011;65989;51.686;5.138;2023-06-22T07:59:09;21.43;;;15.30;;
77061;SDS011;65989;51.686;5.138;2023-06-22T08:01:34;20.43;;;14.20;;
77061;SDS011;65989;51.686;5.138;2023-06-22T08:03:59;20.77;;;14.43;;
77061;SDS011;65989;51.686;5.138;2023-06-22T08:06:24;21.27;;;14.30;;
77061;SDS011;65989;51.686;5.138;2023-06-22T08:08:50;19.67;;;14.90;;
77061;SDS011;65989;51.686;5.138;2023-06-22T08:11:18;19.15;;;15.40;;
77061;SDS011;65989;51.686;5.138;2023-06-22T08:13:44;20.90;;;15.33;;
77061;SDS011;65989;51.686;5.138;2023-06-22T08:16:09;20.43;;;15.20;;
77061;SDS011;65989;51.686;5.138;2023-06-22T08:18:34;21.05;;;14.80;;
77061;SDS011;65989;51.686;5.138;2023-06-22T08:21:00;21.20;;;15.50;;
77061;SDS011;65989;51.686;5.138;2023-06-22T08:23:25;22.00;;;15.37;;
77061;SDS011;65989;51.686;5.138;2023-06-22T08:25:50;22.67;;;15.77;;
77061;SDS011;65989;51.686;5.138;2023-06-22T08:28:16;21.93;;;16.43;;
77061;SDS011;65989;51.686;5.138;2023-06-22T08:30:41;18.73;;;15.80;;
77061;SDS011;65989;51.686;5.138;2023-06-22T08:33:06;20.93;;;17.43;;
77061;SDS011;65989;51.686;5.138;2023-06-22T08:35:32;20.43;;;16.33;;
77061;SDS011;65989;51.686;5.138;2023-06-22T08:37:57;22.73;;;16.15;;
77061;SDS011;65989;51.686;5.138;2023-06-22T08:40:24;21.23;;;16.43;;
77061;SDS011;65989;51.686;5.138;2023-06-22T08:42:49;159.83;;;26.50;;
77061;SDS011;65989;51.686;5.138;2023-06-22T08:45:14;159.15;;;26.38;;
77061;SDS011;65989;51.686;5.138;2023-06-22T08:47:40;28.70;;;16.73;;
77061;SDS011;65989;51.686;5.138;2023-06-22T08:50:07;40.72;;;17.80;;
77061;SDS011;65989;51.686;5.138;2023-06-22T08:52:33;38.38;;;17.77;;
77061;SDS011;65989;51.686;5.138;2023-06-22T08:54:58;21.83;;;16.13;;
77061;SDS011;65989;51.686;5.138;2023-06-22T08:57:24;23.17;;;16.63;;
77061;SDS011;65989;51.686;5.138;2023-06-22T08:59:49;35.20;;;16.23;;
77061;SDS011;65989;51.686;5.138;2023-06-22T09:02:17;21.58;;;15.50;;
77061;SDS011;65989;51.686;5.138;2023-06-22T09:04:42;21.27;;;16.23;;
77061;SDS011;65989;51.686;5.138;2023-06-22T09:07:08;21.33;;;16.33;;
77061;SDS011;65989;51.686;5.138;2023-06-22T09:09:33;23.00;;;16.50;;
77061;SDS011;65989;51.686;5.138;2023-06-22T09:11:58;24.55;;;16.42;;
77061;SDS011;65989;51.686;5.138;2023-06-22T09:14:23;21.87;;;16.30;;
77061;SDS011;65989;51.686;5.138;2023-06-22T09:16:49;21.43;;;16.17;;
77061;SDS011;65989;51.686;5.138;2023-06-22T09:19:14;21.77;;;16.67;;
77061;SDS011;65989;51.686;5.138;2023-06-22T09:21:39;23.63;;;16.67;;
77061;SDS011;65989;51.686;5.138;2023-06-22T09:24:04;26.70;;;16.27;;
77061;SDS011;65989;51.686;5.138;2023-06-22T09:26:30;21.93;;;16.80;;
77061;SDS011;65989;51.686;5.138;2023-06-22T09:28:55;23.37;;;16.37;;
77061;SDS011;65989;51.686;5.138;2023-06-22T09:31:20;21.87;;;17.17;;
77061;SDS011;65989;51.686;5.138;2023-06-22T09:33:54;21.00;;;16.53;;
77061;SDS011;65989;51.686;5.138;2023-06-22T09:36:20;21.50;;;15.77;;
77061;SDS011;65989;51.686;5.138;2023-06-22T09:38:45;23.90;;;16.58;;
77061;SDS011;65989;51.686;5.138;2023-06-22T09:41:11;18.23;;;14.60;;
77061;SDS011;65989;51.686;5.138;2023-06-22T09:43:36;22.17;;;15.50;;
77061;SDS011;65989;51.686;5.138;2023-06-22T09:46:02;21.67;;;16.03;;
77061;SDS011;65989;51.686;5.138;2023-06-22T09:48:27;19.35;;;14.68;;
77061;SDS011;65989;51.686;5.138;2023-06-22T09:50:54;23.05;;;14.82;;
77061;SDS011;65989;51.686;5.138;2023-06-22T09:53:19;22.90;;;13.80;;
77061;SDS011;65989;51.686;5.138;2023-06-22T09:55:45;18.87;;;14.23;;
77061;SDS011;65989;51.686;5.138;2023-06-22T09:58:10;18.67;;;14.17;;
77061;SDS011;65989;51.686;5.138;2023-06-22T10:00:35;20.87;;;14.57;;
77061;SDS011;65989;51.686;5.138;2023-06-22T10:03:00;18.50;;;14.40;;
77061;SDS011;65989;51.686;5.138;2023-06-22T10:05:26;17.33;;;13.47;;
77061;SDS011;65989;51.686;5.138;2023-06-22T10:07:51;20.03;;;13.50;;
77061;SDS011;65989;51.686;5.138;2023-06-22T10:10:16;17.17;;;13.60;;
77061;SDS011;65989;51.686;5.138;2023-06-22T10:12:44;20.97;;;13.13;;
77061;SDS011;65989;51.686;5.138;2023-06-22T10:15:10;18.30;;;12.65;;
77061;SDS011;65989;51.686;5.138;2023-06-22T10:17:35;23.40;;;11.93;;
77061;SDS011;65989;51.686;5.138;2023-06-22T10:20:00;17.00;;;11.43;;
77061;SDS011;65989;51.686;5.138;2023-06-22T10:22:31;16.20;;;11.85;;
77061;SDS011;65989;51.686;5.138;2023-06-22T10:24:56;16.87;;;11.70;;
77061;SDS011;65989;51.686;5.138;2023-06-22T10:27:21;16.03;;;11.33;;
77061;SDS011;65989;51.686;5.138;2023-06-22T10:29:46;16.83;;;11.97;;
77061;SDS011;65989;51.686;5.138;2023-06-22T10:32:12;17.03;;;11.27;;
77061;SDS011;65989;51.686;5.138;2023-06-22T10:34:37;13.23;;;10.50;;
77061;SDS011;65989;51.686;5.138;2023-06-22T10:37:02;14.70;;;10.70;;
77061;SDS011;65989;51.686;5.138;2023-06-22T10:39:27;17.13;;;11.10;;
77061;SDS011;65989;51.686;5.138;2023-06-22T10:41:53;15.57;;;11.07;;
77061;SDS011;65989;51.686;5.138;2023-06-22T10:44:18;14.90;;;10.23;;
77061;SDS011;65989;51.686;5.138;2023-06-22T10:46:43;15.87;;;10.30;;
77061;SDS011;65989;51.686;5.138;2023-06-22T10:49:08;14.20;;;9.97;;
77061;SDS011;65989;51.686;5.138;2023-06-22T10:51:34;13.47;;;9.80;;
77061;SDS011;65989;51.686;5.138;2023-06-22T10:53:59;15.17;;;10.53;;
77061;SDS011;65989;51.686;5.138;2023-06-22T10:56:24;14.40;;;10.07;;
77061;SDS011;65989;51.686;5.138;2023-06-22T10:58:49;15.33;;;10.27;;
77061;SDS011;65989;51.686;5.138;2023-06-22T11:01:15;15.47;;;11.33;;
77061;SDS011;65989;51.686;5.138;2023-06-22T11:03:40;15.30;;;11.47;;
77061;SDS011;65989;51.686;5.138;2023-06-22T11:06:05;14.20;;;11.23;;
77061;SDS011;65989;51.686;5.138;2023-06-22T11:08:30;14.80;;;11.17;;
77061;SDS011;65989;51.686;5.138;2023-06-22T11:10:56;15.83;;;12.50;;
77061;SDS011;65989;51.686;5.138;2023-06-22T11:13:21;17.20;;;11.80;;
77061;SDS011;65989;51.686;5.138;2023-06-22T11:15:46;18.33;;;12.20;;
77061;SDS011;65989;51.686;5.138;2023-06-22T11:18:11;17.73;;;11.73;;
77061;SDS011;65989;51.686;5.138;2023-06-22T11:20:37;17.77;;;12.60;;
77061;SDS011;65989;51.686;5.138;2023-06-22T11:23:06;15.83;;;10.90;;
77061;SDS011;65989;51.686;5.138;2023-06-22T11:25:32;17.08;;;11.60;;
77061;SDS011;65989;51.686;5.138;2023-06-22T11:28:00;18.98;;;11.82;;
77061;SDS011;65989;51.686;5.138;2023-06-22T11:30:25;16.30;;;11.53;;
77061;SDS011;65989;51.686;5.138;2023-06-22T11:32:50;15.57;;;11.70;;
77061;SDS011;65989;51.686;5.138;2023-06-22T11:35:15;18.30;;;11.87;;
77061;SDS011;65989;51.686;5.138;2023-06-22T11:37:41;19.07;;;12.40;;
77061;SDS011;65989;51.686;5.138;2023-06-22T11:40:07;17.15;;;12.75;;
77061;SDS011;65989;51.686;5.138;2023-06-22T11:42:34;15.52;;;12.30;;
77061;SDS011;65989;51.686;5.138;2023-06-22T11:44:59;18.50;;;13.30;;
77061;SDS011;65989;51.686;5.138;2023-06-22T11:47:24;17.33;;;12.80;;
77061;SDS011;65989;51.686;5.138;2023-06-22T11:49:49;16.00;;;12.83;;
77061;SDS011;65989;51.686;5.138;2023-06-22T11:52:15;18.07;;;13.30;;
77061;SDS011;65989;51.686;5.138;2023-06-22T11:54:42;18.08;;;13.40;;
77061;SDS011;65989;51.686;5.138;2023-06-22T11:57:07;17.30;;;12.67;;
77061;SDS011;65989;51.686;5.138;2023-06-22T11:59:33;22.93;;;14.27;;
77061;SDS011;65989;51.686;5.138;2023-06-22T12:01:58;18.17;;;13.63;;
77061;SDS011;65989;51.686;5.138;2023-06-22T12:04:23;22.23;;;14.67;;
77061;SDS011;65989;51.686;5.138;2023-06-22T12:06:48;20.00;;;14.20;;
77061;SDS011;65989;51.686;5.138;2023-06-22T12:09:14;21.97;;;16.03;;
77061;SDS011;65989;51.686;5.138;2023-06-22T12:11:39;19.83;;;15.83;;
77061;SDS011;65989;51.686;5.138;2023-06-22T12:14:04;21.90;;;14.47;;
77061;SDS011;65989;51.686;5.138;2023-06-22T12:16:30;19.87;;;13.60;;
77061;SDS011;65989;51.686;5.138;2023-06-22T12:18:55;20.37;;;14.50;;
77061;SDS011;65989;51.686;5.138;2023-06-22T12:21:20;18.00;;;14.53;;
77061;SDS011;65989;51.686;5.138;2023-06-22T12:23:45;26.77;;;18.03;;
77061;SDS011;65989;51.686;5.138;2023-06-22T12:26:11;26.80;;;16.83;;
77061;SDS011;65989;51.686;5.138;2023-06-22T12:28:36;23.93;;;16.90;;
77061;SDS011;65989;51.686;5.138;2023-06-22T12:31:01;27.43;;;18.77;;
77061;SDS011;65989;51.686;5.138;2023-06-22T12:33:26;21.27;;;16.07;;
77061;SDS011;65989;51.686;5.138;2023-06-22T12:35:52;29.90;;;17.33;;
77061;SDS011;65989;51.686;5.138;2023-06-22T12:38:17;21.47;;;16.73;;
77061;SDS011;65989;51.686;5.138;2023-06-22T12:40:42;24.20;;;17.43;;
77061;SDS011;65989;51.686;5.138;2023-06-22T12:43:07;22.27;;;18.20;;
77061;SDS011;65989;51.686;5.138;2023-06-22T12:45:33;26.23;;;19.77;;
77061;SDS011;65989;51.686;5.138;2023-06-22T12:47:58;30.00;;;20.70;;
77061;SDS011;65989;51.686;5.138;2023-06-22T12:50:24;27.23;;;21.80;;
77061;SDS011;65989;51.686;5.138;2023-06-22T12:52:49;28.17;;;23.33;;
77061;SDS011;65989;51.686;5.138;2023-06-22T12:55:15;27.50;;;22.57;;
77061;SDS011;65989;51.686;5.138;2023-06-22T12:57:40;28.90;;;23.40;;
77061;SDS011;65989;51.686;5.138;2023-06-22T13:00:05;33.40;;;25.33;;
77061;SDS011;65989;51.686;5.138;2023-06-22T13:02:33;35.00;;;25.75;;
77061;SDS011;65989;51.686;5.138;2023-06-22T13:04:58;29.23;;;25.67;;
77061;SDS011;65989;51.686;5.138;2023-06-22T13:07:23;31.93;;;26.47;;
77061;SDS011;65989;51.686;5.138;2023-06-22T13:09:48;33.40;;;26.10;;
77061;SDS011;65989;51.686;5.138;2023-06-22T13:12:16;36.60;;;26.77;;
77061;SDS011;65989;51.686;5.138;2023-06-22T13:14:41;36.63;;;27.83;;
77061;SDS011;65989;51.686;5.138;2023-06-22T13:17:08;34.67;;;26.92;;
77061;SDS011;65989;51.686;5.138;2023-06-22T13:19:33;34.70;;;24.27;;
77061;SDS011;65989;51.686;5.138;2023-06-22T13:21:59;38.35;;;27.13;;
77061;SDS011;65989;51.686;5.138;2023-06-22T13:24:24;31.60;;;25.43;;
77061;SDS011;65989;51.686;5.138;2023-06-22T13:26:50;30.53;;;24.57;;
77061;SDS011;65989;51.686;5.138;2023-06-22T13:29:15;29.93;;;25.13;;
77061;SDS011;65989;51.686;5.138;2023-06-22T13:31:40;39.53;;;28.23;;
77061;SDS011;65989;51.686;5.138;2023-06-22T13:34:05;32.83;;;27.00;;
77061;SDS011;65989;51.686;5.138;2023-06-22T13:36:31;35.20;;;28.70;;
77061;SDS011;65989;51.686;5.138;2023-06-22T13:38:56;34.27;;;28.07;;
77061;SDS011;65989;51.686;5.138;2023-06-22T13:41:22;36.67;;;28.70;;
77061;SDS011;65989;51.686;5.138;2023-06-22T13:43:47;33.10;;;27.50;;
77061;SDS011;65989;51.686;5.138;2023-06-22T13:46:12;33.37;;;27.43;;
77061;SDS011;65989;51.686;5.138;2023-06-22T13:48:37;37.77;;;29.67;;
77061;SDS011;65989;51.686;5.138;2023-06-22T13:51:03;37.70;;;31.03;;
77061;SDS011;65989;51.686;5.138;2023-06-22T13:53:28;36.10;;;29.13;;
77061;SDS011;65989;51.686;5.138;2023-06-22T13:55:53;44.27;;;32.97;;
77061;SDS011;65989;51.686;5.138;2023-06-22T13:58:18;40.50;;;30.80;;
77061;SDS011;65989;51.686;5.138;2023-06-22T14:00:45;36.88;;;30.63;;
77061;SDS011;65989;51.686;5.138;2023-06-22T14:03:10;41.43;;;30.67;;
77061;SDS011;65989;51.686;5.138;2023-06-22T14:05:35;38.20;;;31.23;;
77061;SDS011;65989;51.686;5.138;2023-06-22T14:08:00;39.00;;;31.43;;
77061;SDS011;65989;51.686;5.138;2023-06-22T14:10:26;44.13;;;33.90;;
77061;SDS011;65989;51.686;5.138;2023-06-22T14:12:51;39.93;;;33.63;;
77061;SDS011;65989;51.686;5.138;2023-06-22T14:15:18;45.53;;;35.63;;
77061;SDS011;65989;51.686;5.138;2023-06-22T14:17:43;43.20;;;34.33;;
77061;SDS011;65989;51.686;5.138;2023-06-22T14:20:08;48.17;;;37.47;;